createdAt,value
2023-05-02T00:00:45.075Z,1003.30
2023-05-02T00:01:45.095Z,1003.29
2023-05-02T00:02:45.245Z,1003.30
2023-05-02T00:03:45.083Z,1003.29
2023-05-02T00:05:55.354Z,1003.26
2023-05-02T00:06:55.439Z,1003.32
2023-05-02T00:07:55.291Z,1003.32
2023-05-02T00:08:55.288Z,1003.31
2023-05-02T00:09:55.257Z,1003.31
2023-05-02T00:10:55.266Z,1003.31
2023-05-02T00:11:55.248Z,1003.35
2023-05-02T00:12:55.248Z,1003.35
2023-05-02T00:13:55.205Z,1003.37
2023-05-02T00:14:55.195Z,1003.35
2023-05-02T00:15:55.191Z,1003.35
2023-05-02T00:16:55.249Z,1003.34
2023-05-02T00:17:55.279Z,1003.36
2023-05-02T00:18:55.176Z,1003.40
2023-05-02T00:19:55.150Z,1003.37
2023-05-02T00:20:55.124Z,1003.37
2023-05-02T00:21:55.140Z,1003.33
2023-05-02T00:22:55.144Z,1003.35
2023-05-02T00:23:55.138Z,1003.34
2023-05-02T00:24:55.086Z,1003.31
2023-05-02T00:25:55.085Z,1003.34
2023-05-02T00:26:55.069Z,1003.35
2023-05-02T00:27:55.076Z,1003.36
2023-05-02T00:28:55.064Z,1003.35
2023-05-02T00:29:55.052Z,1003.38
2023-05-02T00:30:55.048Z,1003.40
2023-05-02T00:31:55.017Z,1003.38
2023-05-02T00:32:55.075Z,1003.39
2023-05-02T00:33:55.028Z,1003.35
2023-05-02T00:34:54.976Z,1003.40
2023-05-02T00:35:54.981Z,1003.35
2023-05-02T00:36:54.962Z,1003.38
2023-05-02T00:37:55.007Z,1003.35
2023-05-02T00:38:54.963Z,1003.41
2023-05-02T00:39:54.947Z,1003.39
2023-05-02T00:40:54.920Z,1003.42
2023-05-02T00:41:54.906Z,1003.42
2023-05-02T00:42:54.889Z,1003.44
2023-05-02T00:43:54.885Z,1003.43
2023-05-02T00:44:54.895Z,1003.39
2023-05-02T00:45:54.925Z,1003.39
2023-05-02T00:46:54.916Z,1003.42
2023-05-02T00:47:54.875Z,1003.43
2023-05-02T00:48:54.853Z,1003.43
2023-05-02T00:49:54.823Z,1003.41
2023-05-02T00:50:54.820Z,1003.44
2023-05-02T00:51:54.806Z,1003.45
2023-05-02T00:52:54.796Z,1003.45
2023-05-02T00:53:54.774Z,1003.43
2023-05-02T00:54:54.778Z,1003.42
2023-05-02T00:55:54.766Z,1003.42
2023-05-02T00:56:54.756Z,1003.45
2023-05-02T00:57:54.747Z,1003.40
2023-05-02T00:58:54.747Z,1003.44
2023-05-02T00:59:54.712Z,1003.43
2023-05-02T01:00:54.702Z,1003.41
2023-05-02T01:01:54.802Z,1003.42
2023-05-02T01:02:54.754Z,1003.44
2023-05-02T01:03:54.778Z,1003.45
2023-05-02T01:04:54.656Z,1003.50
2023-05-02T01:05:54.659Z,1003.48
2023-05-02T01:06:54.629Z,1003.53
2023-05-02T01:07:54.617Z,1003.54
2023-05-02T01:08:54.634Z,1003.52
2023-05-02T01:09:54.625Z,1003.58
2023-05-02T01:10:54.738Z,1003.55
2023-05-02T01:11:54.614Z,1003.56
2023-05-02T01:12:54.588Z,1003.56
2023-05-02T01:13:54.557Z,1003.56
2023-05-02T01:14:54.552Z,1003.57
2023-05-02T01:15:54.603Z,1003.58
2023-05-02T01:16:54.599Z,1003.61
2023-05-02T01:17:54.582Z,1003.61
2023-05-02T01:18:54.508Z,1003.61
2023-05-02T01:19:54.490Z,1003.61
2023-05-02T01:20:54.483Z,1003.63
2023-05-02T01:21:54.466Z,1003.68
2023-05-02T01:22:54.969Z,1003.68
2023-05-02T01:23:54.449Z,1003.67
2023-05-02T01:24:54.436Z,1003.71
2023-05-02T01:25:54.442Z,1003.71
2023-05-02T01:26:54.549Z,1003.74
2023-05-02T01:27:54.399Z,1003.71
2023-05-02T01:28:54.403Z,1003.72
2023-05-02T01:29:54.402Z,1003.73
2023-05-02T01:30:54.372Z,1003.71
2023-05-02T01:31:54.403Z,1003.75
2023-05-02T01:32:54.394Z,1003.74
2023-05-02T01:33:54.344Z,1003.76
2023-05-02T01:34:54.335Z,1003.77
2023-05-02T01:35:54.327Z,1003.79
2023-05-02T01:36:54.324Z,1003.80
2023-05-02T01:37:54.303Z,1003.79
2023-05-02T01:38:54.296Z,1003.80
2023-05-02T01:39:54.278Z,1003.82
2023-05-02T01:40:54.269Z,1003.84
2023-05-02T01:41:54.284Z,1003.82
2023-05-02T01:42:54.266Z,1003.85
2023-05-02T01:43:54.242Z,1003.88
2023-05-02T01:44:54.227Z,1003.85
2023-05-02T01:45:54.236Z,1003.87
2023-05-02T01:46:54.252Z,1003.86
2023-05-02T01:47:54.217Z,1003.91
2023-05-02T01:48:54.201Z,1003.89
2023-05-02T01:49:54.170Z,1003.92
2023-05-02T01:50:54.168Z,1003.91
2023-05-02T01:51:54.159Z,1003.89
2023-05-02T01:52:54.199Z,1003.90
2023-05-02T01:53:54.140Z,1003.94
2023-05-02T01:54:54.118Z,1003.95
2023-05-02T01:55:54.123Z,1003.96
2023-05-02T01:56:54.102Z,1003.96
2023-05-02T01:57:54.082Z,1003.95
2023-05-02T01:58:54.107Z,1003.96
2023-05-02T01:59:54.073Z,1004.02
2023-05-02T02:00:54.097Z,1004.03
2023-05-02T02:01:54.051Z,1004.08
2023-05-02T02:02:54.077Z,1004.11
2023-05-02T02:03:54.108Z,1004.09
2023-05-02T02:04:54.009Z,1004.20
2023-05-02T02:05:54.009Z,1004.16
2023-05-02T02:06:54.134Z,1004.16
2023-05-02T02:07:53.994Z,1004.25
2023-05-02T02:08:53.971Z,1004.19
2023-05-02T02:09:53.969Z,1004.19
2023-05-02T02:10:53.950Z,1004.18
2023-05-02T02:11:53.934Z,1004.18
2023-05-02T02:12:53.958Z,1004.19
2023-05-02T02:13:53.929Z,1004.20
2023-05-02T02:14:53.935Z,1004.19
2023-05-02T02:15:53.887Z,1004.18
2023-05-02T02:16:53.940Z,1004.19
2023-05-02T02:17:53.916Z,1004.28
2023-05-02T02:18:53.900Z,1004.21
2023-05-02T02:19:53.845Z,1004.27
2023-05-02T02:20:53.853Z,1004.29
2023-05-02T02:21:53.845Z,1004.31
2023-05-02T02:22:53.823Z,1004.26
2023-05-02T02:23:53.806Z,1004.25
2023-05-02T02:24:54.491Z,1004.28
2023-05-02T02:25:53.801Z,1004.29
2023-05-02T02:26:53.781Z,1004.28
2023-05-02T02:27:53.760Z,1004.33
2023-05-02T02:28:53.764Z,1004.31
2023-05-02T02:29:53.736Z,1004.36
2023-05-02T02:30:53.826Z,1004.33
2023-05-02T02:31:53.730Z,1004.38
2023-05-02T02:32:53.758Z,1004.36
2023-05-02T02:33:53.710Z,1004.42
2023-05-02T02:34:53.688Z,1004.37
2023-05-02T02:35:53.670Z,1004.39
2023-05-02T02:36:53.676Z,1004.43
2023-05-02T02:37:53.685Z,1004.45
2023-05-02T02:38:53.652Z,1004.43
2023-05-02T02:39:53.654Z,1004.48
2023-05-02T02:40:53.626Z,1004.49
2023-05-02T02:41:53.619Z,1004.47
2023-05-02T02:42:53.613Z,1004.49
2023-05-02T02:43:53.609Z,1004.51
2023-05-02T02:44:53.575Z,1004.48
2023-05-02T02:45:53.591Z,1004.49
2023-05-02T02:46:53.593Z,1004.55
2023-05-02T02:47:53.582Z,1004.51
2023-05-02T02:48:53.553Z,1004.51
2023-05-02T02:49:53.532Z,1004.51
2023-05-02T02:50:53.534Z,1004.51
2023-05-02T02:51:53.500Z,1004.55
2023-05-02T02:52:53.502Z,1004.59
2023-05-02T02:53:53.498Z,1004.57
2023-05-02T02:54:53.476Z,1004.59
2023-05-02T02:55:53.472Z,1004.58
2023-05-02T02:56:53.468Z,1004.61
2023-05-02T02:57:53.435Z,1004.64
2023-05-02T02:58:53.426Z,1004.61
2023-05-02T02:59:53.413Z,1004.62
2023-05-02T03:00:53.426Z,1004.65
2023-05-02T03:01:53.450Z,1004.65
2023-05-02T03:02:53.451Z,1004.73
2023-05-02T03:03:53.441Z,1004.68
2023-05-02T03:04:53.359Z,1004.68
2023-05-02T03:05:53.359Z,1004.66
2023-05-02T03:06:53.389Z,1004.69
2023-05-02T03:07:53.374Z,1004.77
2023-05-02T03:08:53.318Z,1004.79
2023-05-02T03:09:53.308Z,1004.81
2023-05-02T03:10:53.296Z,1004.81
2023-05-02T03:11:53.298Z,1004.82
2023-05-02T03:12:53.288Z,1004.86
2023-05-02T03:13:53.268Z,1004.83
2023-05-02T03:14:53.294Z,1004.84
2023-05-02T03:15:53.349Z,1004.87
2023-05-02T03:16:53.230Z,1004.89
2023-05-02T03:17:53.296Z,1004.89
2023-05-02T03:18:53.226Z,1004.91
2023-05-02T03:19:53.198Z,1004.86
2023-05-02T03:20:53.188Z,1004.86
2023-05-02T03:21:53.199Z,1004.86
2023-05-02T03:22:53.167Z,1004.82
2023-05-02T03:23:53.163Z,1004.81
2023-05-02T03:24:53.156Z,1004.84
2023-05-02T03:25:53.532Z,1004.90
2023-05-02T03:26:53.125Z,1004.90
2023-05-02T03:27:53.124Z,1004.92
2023-05-02T03:28:53.135Z,1004.95
2023-05-02T03:29:53.087Z,1004.96
2023-05-02T03:30:53.085Z,1004.92
2023-05-02T03:31:53.106Z,1004.91
2023-05-02T03:32:53.100Z,1004.94
2023-05-02T03:33:53.082Z,1004.93
2023-05-02T03:34:53.055Z,1004.91
2023-05-02T03:35:53.037Z,1004.99
2023-05-02T03:36:53.034Z,1004.94
2023-05-02T03:37:53.001Z,1004.92
2023-05-02T03:38:52.997Z,1004.97
2023-05-02T03:39:52.976Z,1004.93
2023-05-02T03:40:52.986Z,1004.93
2023-05-02T03:41:52.969Z,1004.94
2023-05-02T03:42:52.950Z,1004.92
2023-05-02T03:43:52.954Z,1005.00
2023-05-02T03:44:52.924Z,1004.99
2023-05-02T03:45:52.913Z,1004.96
2023-05-02T03:46:52.954Z,1004.98
2023-05-02T03:47:52.993Z,1004.96
2023-05-02T03:48:52.911Z,1004.97
2023-05-02T03:49:52.877Z,1005.00
2023-05-02T03:50:52.936Z,1005.04
2023-05-02T03:51:52.849Z,1005.02
2023-05-02T03:52:52.840Z,1005.03
2023-05-02T03:53:52.855Z,1004.99
2023-05-02T03:54:52.820Z,1005.02
2023-05-02T03:55:52.810Z,1004.97
2023-05-02T03:56:52.802Z,1004.95
2023-05-02T03:57:52.791Z,1005.00
2023-05-02T03:58:52.792Z,1004.99
2023-05-02T03:59:52.770Z,1005.03
2023-05-02T04:00:52.775Z,1005.03
2023-05-02T04:01:52.799Z,1005.06
2023-05-02T04:02:52.942Z,1005.04
2023-05-02T04:03:52.794Z,1005.00
2023-05-02T04:04:52.726Z,1005.03
2023-05-02T04:05:52.715Z,1005.01
2023-05-02T04:06:52.823Z,1005.09
2023-05-02T04:07:52.678Z,1005.07
2023-05-02T04:08:52.671Z,1005.08
2023-05-02T04:09:52.675Z,1005.06
2023-05-02T04:10:52.655Z,1005.08
2023-05-02T04:11:52.644Z,1005.06
2023-05-02T04:12:52.623Z,1005.09
2023-05-02T04:13:53.448Z,1005.07
2023-05-02T04:14:52.641Z,1005.14
2023-05-02T04:15:52.606Z,1005.10
2023-05-02T04:16:52.784Z,1005.11
2023-05-02T04:17:52.627Z,1005.14
2023-05-02T04:18:52.583Z,1005.21
2023-05-02T04:19:52.567Z,1005.21
2023-05-02T04:20:52.564Z,1005.19
2023-05-02T04:21:52.543Z,1005.22
2023-05-02T04:22:52.548Z,1005.17
2023-05-02T04:23:52.513Z,1005.20
2023-05-02T04:24:52.509Z,1005.27
2023-05-02T04:25:52.505Z,1005.21
2023-05-02T04:26:52.474Z,1005.29
2023-05-02T04:27:52.497Z,1005.30
2023-05-02T04:28:52.459Z,1005.30
2023-05-02T04:29:52.457Z,1005.31
2023-05-02T04:30:52.474Z,1005.38
2023-05-02T04:31:52.417Z,1005.34
2023-05-02T04:32:52.446Z,1005.40
2023-05-02T04:33:52.399Z,1005.45
2023-05-02T04:34:52.411Z,1005.41
2023-05-02T04:35:52.383Z,1005.46
2023-05-02T04:36:52.375Z,1005.46
2023-05-02T04:37:52.347Z,1005.45
2023-05-02T04:38:52.382Z,1005.46
2023-05-02T04:39:52.346Z,1005.48
2023-05-02T04:40:52.326Z,1005.47
2023-05-02T04:41:52.371Z,1005.52
2023-05-02T04:42:52.301Z,1005.53
2023-05-02T04:43:52.308Z,1005.52
2023-05-02T04:44:52.277Z,1005.52
2023-05-02T04:45:52.408Z,1005.57
2023-05-02T04:46:52.381Z,1005.56
2023-05-02T04:47:52.331Z,1005.57
2023-05-02T04:48:52.261Z,1005.54
2023-05-02T04:49:52.219Z,1005.62
2023-05-02T04:50:52.225Z,1005.61
2023-05-02T04:51:52.195Z,1005.64
2023-05-02T04:52:52.262Z,1005.64
2023-05-02T04:53:52.176Z,1005.65
2023-05-02T04:54:52.194Z,1005.65
2023-05-02T04:55:52.192Z,1005.67
2023-05-02T04:56:52.152Z,1005.67
2023-05-02T04:57:52.147Z,1005.64
2023-05-02T04:58:52.170Z,1005.67
2023-05-02T04:59:52.142Z,1005.69
2023-05-02T05:00:52.125Z,1005.70
2023-05-02T05:01:52.169Z,1005.76
2023-05-02T05:02:52.145Z,1005.74
2023-05-02T05:03:52.179Z,1005.78
2023-05-02T05:04:52.113Z,1005.73
2023-05-02T05:05:52.045Z,1005.76
2023-05-02T05:06:52.182Z,1005.78
2023-05-02T05:07:52.049Z,1005.75
2023-05-02T05:08:52.025Z,1005.82
2023-05-02T05:09:53.402Z,1005.82
2023-05-02T05:10:52.038Z,1005.78
2023-05-02T05:11:51.994Z,1005.79
2023-05-02T05:12:51.991Z,1005.78
2023-05-02T05:13:51.979Z,1005.80
2023-05-02T05:14:51.968Z,1005.81
2023-05-02T05:15:51.991Z,1005.83
2023-05-02T05:16:51.981Z,1005.88
2023-05-02T05:17:52.034Z,1005.92
2023-05-02T05:18:51.912Z,1005.83
2023-05-02T05:19:51.920Z,1005.90
2023-05-02T05:20:51.904Z,1005.89
2023-05-02T05:21:51.883Z,1005.93
2023-05-02T05:22:51.915Z,1005.90
2023-05-02T05:23:51.885Z,1005.94
2023-05-02T05:24:51.864Z,1005.94
2023-05-02T05:25:51.853Z,1005.97
2023-05-02T05:26:51.836Z,1005.98
2023-05-02T05:27:51.808Z,1006.04
2023-05-02T05:28:51.814Z,1005.97
2023-05-02T05:29:51.800Z,1006.02
2023-05-02T05:30:51.797Z,1006.03
2023-05-02T05:31:51.823Z,1006.01
2023-05-02T05:32:51.795Z,1006.03
2023-05-02T05:33:51.814Z,1006.05
2023-05-02T05:34:51.743Z,1006.05
2023-05-02T05:35:51.725Z,1006.04
2023-05-02T05:36:51.713Z,1006.09
2023-05-02T05:37:51.720Z,1006.09
2023-05-02T05:38:51.720Z,1006.11
2023-05-02T05:39:51.699Z,1006.12
2023-05-02T05:40:51.688Z,1006.15
2023-05-02T05:41:51.662Z,1006.12
2023-05-02T05:42:51.803Z,1006.14
2023-05-02T05:43:51.661Z,1006.16
2023-05-02T05:44:51.640Z,1006.19
2023-05-02T05:45:51.629Z,1006.21
2023-05-02T05:46:51.625Z,1006.23
2023-05-02T05:47:51.676Z,1006.22
2023-05-02T05:48:51.584Z,1006.23
2023-05-02T05:49:51.569Z,1006.20
2023-05-02T05:50:51.576Z,1006.20
2023-05-02T05:51:51.561Z,1006.20
2023-05-02T05:52:51.555Z,1006.24
2023-05-02T05:53:51.533Z,1006.28
2023-05-02T05:54:51.517Z,1006.33
2023-05-02T05:55:51.537Z,1006.31
2023-05-02T05:56:51.502Z,1006.38
2023-05-02T05:57:51.494Z,1006.38
2023-05-02T05:58:51.493Z,1006.38
2023-05-02T05:59:51.510Z,1006.43
2023-05-02T06:00:51.494Z,1006.44
2023-05-02T06:01:51.477Z,1006.46
2023-05-02T06:02:51.590Z,1006.49
2023-05-02T06:03:51.493Z,1006.50
2023-05-02T06:04:51.477Z,1006.50
2023-05-02T06:05:51.401Z,1006.54
2023-05-02T06:06:51.668Z,1006.56
2023-05-02T06:07:51.452Z,1006.52
2023-05-02T06:08:51.413Z,1006.52
2023-05-02T06:09:51.357Z,1006.57
2023-05-02T06:10:51.344Z,1006.57
2023-05-02T06:11:51.354Z,1006.55
2023-05-02T06:12:51.322Z,1006.57
2023-05-02T06:13:58.490Z,1006.58
2023-05-02T06:14:51.331Z,1006.56
2023-05-02T06:15:51.325Z,1006.57
2023-05-02T06:16:51.290Z,1006.58
2023-05-02T06:17:51.330Z,1006.63
2023-05-02T06:18:51.303Z,1006.60
2023-05-02T06:19:51.289Z,1006.64
2023-05-02T06:20:51.250Z,1006.65
2023-05-02T06:21:51.277Z,1006.63
2023-05-02T06:22:51.307Z,1006.66
2023-05-02T06:23:51.230Z,1006.65
2023-05-02T06:24:51.199Z,1006.67
2023-05-02T06:25:51.189Z,1006.70
2023-05-02T06:26:51.192Z,1006.67
2023-05-02T06:27:51.189Z,1006.74
2023-05-02T06:28:51.190Z,1006.72
2023-05-02T06:29:51.273Z,1006.80
2023-05-02T06:30:51.127Z,1006.72
2023-05-02T06:31:51.190Z,1006.76
2023-05-02T06:32:51.150Z,1006.78
2023-05-02T06:33:51.120Z,1006.77
2023-05-02T06:34:51.105Z,1006.78
2023-05-02T06:35:51.077Z,1006.83
2023-05-02T06:36:51.082Z,1006.84
2023-05-02T06:37:51.063Z,1006.84
2023-05-02T06:38:51.084Z,1006.82
2023-05-02T06:39:51.032Z,1006.87
2023-05-02T06:40:51.055Z,1006.88
2023-05-02T06:41:51.022Z,1006.86
2023-05-02T06:42:51.002Z,1006.89
2023-05-02T06:43:50.986Z,1006.89
2023-05-02T06:44:50.994Z,1006.93
2023-05-02T06:45:50.988Z,1006.93
2023-05-02T06:46:51.024Z,1006.94
2023-05-02T06:47:50.975Z,1006.96
2023-05-02T06:48:50.934Z,1006.99
2023-05-02T06:49:51.000Z,1006.97
2023-05-02T06:50:50.938Z,1007.01
2023-05-02T06:51:50.933Z,1007.01
2023-05-02T06:52:50.899Z,1006.99
2023-05-02T06:53:50.996Z,1007.06
2023-05-02T06:54:50.878Z,1007.03
2023-05-02T06:55:50.876Z,1007.09
2023-05-02T06:56:50.846Z,1007.11
2023-05-02T06:57:50.873Z,1007.15
2023-05-02T06:58:50.893Z,1007.14
2023-05-02T06:59:50.827Z,1007.19
2023-05-02T07:00:50.859Z,1007.22
2023-05-02T07:01:50.846Z,1007.20
2023-05-02T07:02:50.817Z,1007.19
2023-05-02T07:03:50.814Z,1007.24
2023-05-02T07:04:50.759Z,1007.21
2023-05-02T07:05:50.745Z,1007.23
2023-05-02T07:06:50.866Z,1007.27
2023-05-02T07:07:50.750Z,1007.25
2023-05-02T07:08:50.706Z,1007.25
2023-05-02T07:09:50.714Z,1007.29
2023-05-02T07:10:50.695Z,1007.31
2023-05-02T07:11:50.717Z,1007.28
2023-05-02T07:12:50.700Z,1007.25
2023-05-02T07:13:50.682Z,1007.32
2023-05-02T07:14:50.645Z,1007.29
2023-05-02T07:15:50.656Z,1007.30
2023-05-02T07:16:50.681Z,1007.29
2023-05-02T07:17:50.650Z,1007.33
2023-05-02T07:18:50.644Z,1007.30
2023-05-02T07:19:50.619Z,1007.36
2023-05-02T07:20:50.586Z,1007.37
2023-05-02T07:21:50.576Z,1007.40
2023-05-02T07:22:50.556Z,1007.41
2023-05-02T07:23:50.570Z,1007.40
2023-05-02T07:24:50.553Z,1007.44
2023-05-02T07:25:50.543Z,1007.42
2023-05-02T07:26:50.520Z,1007.41
2023-05-02T07:27:50.509Z,1007.43
2023-05-02T07:28:50.544Z,1007.43
2023-05-02T07:29:50.488Z,1007.53
2023-05-02T07:30:50.509Z,1007.49
2023-05-02T07:31:50.492Z,1007.52
2023-05-02T07:32:50.491Z,1007.57
2023-05-02T07:33:50.460Z,1007.58
2023-05-02T07:34:50.449Z,1007.61
2023-05-02T07:35:50.428Z,1007.58
2023-05-02T07:36:50.426Z,1007.60
2023-05-02T07:37:50.423Z,1007.57
2023-05-02T07:38:50.387Z,1007.58
2023-05-02T07:39:50.411Z,1007.57
2023-05-02T07:40:50.371Z,1007.60
2023-05-02T07:41:50.359Z,1007.61
2023-05-02T07:42:50.359Z,1007.61
2023-05-02T07:43:50.382Z,1007.55
2023-05-02T07:44:50.343Z,1007.56
2023-05-02T07:45:50.396Z,1007.61
2023-05-02T07:46:50.376Z,1007.58
2023-05-02T07:47:50.339Z,1007.62
2023-05-02T07:48:50.279Z,1007.61
2023-05-02T07:49:50.312Z,1007.64
2023-05-02T07:50:50.271Z,1007.62
2023-05-02T07:51:50.277Z,1007.62
2023-05-02T07:52:50.273Z,1007.62
2023-05-02T07:53:50.272Z,1007.61
2023-05-02T07:54:50.225Z,1007.65
2023-05-02T07:55:50.241Z,1007.59
2023-05-02T07:56:50.212Z,1007.60
2023-05-02T07:57:50.209Z,1007.63
2023-05-02T07:58:50.204Z,1007.64
2023-05-02T07:59:50.194Z,1007.67
2023-05-02T08:00:50.156Z,1007.67
2023-05-02T08:01:50.181Z,1007.64
2023-05-02T08:02:50.182Z,1007.69
2023-05-02T08:03:50.476Z,1007.71
2023-05-02T08:04:50.156Z,1007.67
2023-05-02T08:05:50.123Z,1007.65
2023-05-02T08:06:50.141Z,1007.73
2023-05-02T08:07:50.103Z,1007.76
2023-05-02T08:08:50.069Z,1007.70
2023-05-02T08:09:50.077Z,1007.72
2023-05-02T08:10:50.062Z,1007.72
2023-05-02T08:11:50.041Z,1007.76
2023-05-02T08:12:50.027Z,1007.76
2023-05-02T08:13:50.039Z,1007.78
2023-05-02T08:14:50.009Z,1007.82
2023-05-02T08:15:50.085Z,1007.81
2023-05-02T08:16:50.026Z,1007.83
2023-05-02T08:17:50.040Z,1007.83
2023-05-02T08:18:49.958Z,1007.82
2023-05-02T08:19:49.953Z,1007.80
2023-05-02T08:20:49.943Z,1007.85
2023-05-02T08:21:49.975Z,1007.88
2023-05-02T08:22:49.914Z,1007.89
2023-05-02T08:23:49.933Z,1007.89
2023-05-02T08:24:49.924Z,1007.91
2023-05-02T08:25:49.900Z,1007.91
2023-05-02T08:26:49.885Z,1007.91
2023-05-02T08:27:49.926Z,1007.92
2023-05-02T08:28:49.857Z,1007.92
2023-05-02T08:29:49.862Z,1007.95
2023-05-02T08:30:49.841Z,1007.98
2023-05-02T08:31:49.874Z,1007.96
2023-05-02T08:32:49.868Z,1007.98
2023-05-02T08:33:49.834Z,1007.96
2023-05-02T08:34:49.788Z,1008.02
2023-05-02T08:35:49.781Z,1008.03
2023-05-02T08:36:49.769Z,1007.97
2023-05-02T08:37:50.316Z,1008.07
2023-05-02T08:38:49.742Z,1008.08
2023-05-02T08:39:49.758Z,1008.06
2023-05-02T08:40:49.736Z,1008.09
2023-05-02T08:41:49.731Z,1008.10
2023-05-02T08:42:49.700Z,1008.10
2023-05-02T08:43:49.695Z,1008.14
2023-05-02T08:44:49.710Z,1008.17
2023-05-02T08:45:49.798Z,1008.16
2023-05-02T08:46:49.701Z,1008.18
2023-05-02T08:47:49.727Z,1008.16
2023-05-02T08:48:49.627Z,1008.21
2023-05-02T08:49:49.682Z,1008.18
2023-05-02T08:50:49.625Z,1008.25
2023-05-02T08:51:49.625Z,1008.23
2023-05-02T08:52:49.591Z,1008.28
2023-05-02T08:53:49.609Z,1008.20
2023-05-02T08:54:49.596Z,1008.24
2023-05-02T08:55:49.595Z,1008.25
2023-05-02T08:56:49.544Z,1008.27
2023-05-02T08:57:49.555Z,1008.29
2023-05-02T08:58:49.529Z,1008.24
2023-05-02T08:59:49.559Z,1008.26
2023-05-02T09:00:49.566Z,1008.26
2023-05-02T09:01:49.575Z,1008.30
2023-05-02T09:02:49.488Z,1008.30
2023-05-02T09:03:49.531Z,1008.33
2023-05-02T09:04:49.580Z,1008.36
2023-05-02T09:05:49.448Z,1008.40
2023-05-02T09:06:49.512Z,1008.41
2023-05-02T09:07:49.461Z,1008.45
2023-05-02T09:08:49.525Z,1008.46
2023-05-02T09:09:49.439Z,1008.47
2023-05-02T09:10:49.412Z,1008.48
2023-05-02T09:11:49.395Z,1008.54
2023-05-02T09:12:49.392Z,1008.56
2023-05-02T09:13:49.383Z,1008.53
2023-05-02T09:14:49.353Z,1008.63
2023-05-02T09:15:49.348Z,1008.59
2023-05-02T09:16:49.380Z,1008.66
2023-05-02T09:17:49.442Z,1008.63
2023-05-02T09:18:49.336Z,1008.64
2023-05-02T09:19:49.328Z,1008.60
2023-05-02T09:20:49.329Z,1008.64
2023-05-02T09:21:49.275Z,1008.68
2023-05-02T09:22:49.273Z,1008.70
2023-05-02T09:23:49.291Z,1008.72
2023-05-02T09:24:49.261Z,1008.70
2023-05-02T09:25:49.286Z,1008.72
2023-05-02T09:26:49.236Z,1008.66
2023-05-02T09:27:49.233Z,1008.75
2023-05-02T09:28:49.205Z,1008.72
2023-05-02T09:29:49.210Z,1008.75
2023-05-02T09:30:49.206Z,1008.74
2023-05-02T09:31:56.187Z,1008.79
2023-05-02T09:32:50.214Z,1008.79
2023-05-02T09:33:49.166Z,1008.80
2023-05-02T09:34:49.166Z,1008.78
2023-05-02T09:35:49.233Z,1008.76
2023-05-02T09:36:49.117Z,1008.82
2023-05-02T09:37:49.110Z,1008.84
2023-05-02T09:38:49.098Z,1008.81
2023-05-02T09:39:49.105Z,1008.86
2023-05-02T09:40:49.109Z,1008.86
2023-05-02T09:41:49.093Z,1008.84
2023-05-02T09:42:49.063Z,1008.82
2023-05-02T09:43:49.038Z,1008.87
2023-05-02T09:44:49.024Z,1008.83
2023-05-02T09:45:49.073Z,1008.83
2023-05-02T09:46:49.040Z,1008.82
2023-05-02T09:47:49.040Z,1008.85
2023-05-02T09:48:48.994Z,1008.84
2023-05-02T09:49:48.979Z,1008.83
2023-05-02T09:50:48.965Z,1008.88
2023-05-02T09:51:48.983Z,1008.85
2023-05-02T09:52:48.976Z,1008.87
2023-05-02T09:53:48.951Z,1008.87
2023-05-02T09:54:48.943Z,1008.90
2023-05-02T09:55:48.923Z,1008.88
2023-05-02T09:56:48.900Z,1008.91
2023-05-02T09:57:48.901Z,1008.93
2023-05-02T09:58:48.898Z,1008.88
2023-05-02T09:59:48.885Z,1008.90
2023-05-02T10:00:48.857Z,1008.91
2023-05-02T10:01:48.895Z,1008.91
2023-05-02T10:02:48.918Z,1008.90
2023-05-02T10:03:48.974Z,1008.88
2023-05-02T10:04:48.864Z,1008.86
2023-05-02T10:05:48.809Z,1008.93
2023-05-02T10:06:48.910Z,1008.94
2023-05-02T10:07:48.780Z,1008.89
2023-05-02T10:08:48.770Z,1008.93
2023-05-02T10:09:48.775Z,1008.94
2023-05-02T10:10:48.792Z,1008.96
2023-05-02T10:11:48.769Z,1008.98
2023-05-02T10:12:48.757Z,1009.00
2023-05-02T10:13:48.736Z,1009.03
2023-05-02T10:14:48.709Z,1009.00
2023-05-02T10:15:48.723Z,1009.01
2023-05-02T10:16:48.690Z,1008.98
2023-05-02T10:17:48.748Z,1009.07
2023-05-02T10:18:48.714Z,1009.08
2023-05-02T10:19:48.666Z,1009.06
2023-05-02T10:20:48.646Z,1009.08
2023-05-02T10:21:48.645Z,1009.11
2023-05-02T10:22:48.621Z,1009.11
2023-05-02T10:23:48.624Z,1009.15
2023-05-02T10:24:48.617Z,1009.15
2023-05-02T10:25:48.621Z,1009.12
2023-05-02T10:26:48.579Z,1009.13
2023-05-02T10:27:48.597Z,1009.17
2023-05-02T10:28:48.554Z,1009.16
2023-05-02T10:29:48.583Z,1009.15
2023-05-02T10:30:48.570Z,1009.15
2023-05-02T10:31:48.622Z,1009.19
2023-05-02T10:32:48.547Z,1009.24
2023-05-02T10:33:48.499Z,1009.21
2023-05-02T10:34:48.497Z,1009.23
2023-05-02T10:35:48.522Z,1009.25
2023-05-02T10:36:48.490Z,1009.24
2023-05-02T10:37:48.494Z,1009.25
2023-05-02T10:38:48.460Z,1009.26
2023-05-02T10:39:48.458Z,1009.29
2023-05-02T10:40:48.430Z,1009.27
2023-05-02T10:41:48.419Z,1009.33
2023-05-02T10:42:48.424Z,1009.32
2023-05-02T10:43:48.413Z,1009.37
2023-05-02T10:44:48.379Z,1009.31
2023-05-02T10:45:48.386Z,1009.35
2023-05-02T10:46:48.398Z,1009.37
2023-05-02T10:47:48.418Z,1009.42
2023-05-02T10:48:48.339Z,1009.32
2023-05-02T10:49:48.359Z,1009.36
2023-05-02T10:50:48.337Z,1009.34
2023-05-02T10:51:48.318Z,1009.35
2023-05-02T10:52:48.307Z,1009.34
2023-05-02T10:53:48.287Z,1009.36
2023-05-02T10:54:48.294Z,1009.40
2023-05-02T10:55:48.277Z,1009.35
2023-05-02T10:56:48.272Z,1009.34
2023-05-02T10:57:48.276Z,1009.36
2023-05-02T10:58:48.237Z,1009.35
2023-05-02T10:59:48.218Z,1009.35
2023-05-02T11:00:48.233Z,1009.38
2023-05-02T11:01:48.246Z,1009.38
2023-05-02T11:02:48.265Z,1009.36
2023-05-02T11:03:48.194Z,1009.38
2023-05-02T11:04:48.164Z,1009.35
2023-05-02T11:05:48.155Z,1009.34
2023-05-02T11:06:48.164Z,1009.36
2023-05-02T11:07:48.168Z,1009.36
2023-05-02T11:08:48.148Z,1009.37
2023-05-02T11:09:48.104Z,1009.36
2023-05-02T11:10:48.130Z,1009.40
2023-05-02T11:11:48.105Z,1009.39
2023-05-02T11:12:48.080Z,1009.38
2023-05-02T11:13:48.110Z,1009.41
2023-05-02T11:14:48.059Z,1009.39
2023-05-02T11:15:48.056Z,1009.40
2023-05-02T11:16:48.088Z,1009.41
2023-05-02T11:17:48.067Z,1009.40
2023-05-02T11:18:48.020Z,1009.37
2023-05-02T11:19:48.058Z,1009.38
2023-05-02T11:21:58.196Z,1009.40
2023-05-02T11:22:58.167Z,1009.43
2023-05-02T11:23:58.166Z,1009.41
2023-05-02T11:24:58.456Z,1009.35
2023-05-02T11:25:58.146Z,1009.35
2023-05-02T11:26:58.137Z,1009.34
2023-05-02T11:27:58.117Z,1009.35
2023-05-02T11:28:58.106Z,1009.32
2023-05-02T11:29:58.121Z,1009.32
2023-05-02T11:30:58.129Z,1009.38
2023-05-02T11:31:58.140Z,1009.34
2023-05-02T11:32:58.094Z,1009.36
2023-05-02T11:33:58.071Z,1009.32
2023-05-02T11:34:58.349Z,1009.31
2023-05-02T11:35:58.073Z,1009.34
2023-05-02T11:36:58.023Z,1009.33
2023-05-02T11:37:58.037Z,1009.39
2023-05-02T11:38:57.999Z,1009.37
2023-05-02T11:39:58.010Z,1009.41
2023-05-02T11:40:57.974Z,1009.36
2023-05-02T11:41:57.980Z,1009.42
2023-05-02T11:42:57.986Z,1009.40
2023-05-02T11:43:58.009Z,1009.39
2023-05-02T11:44:58.392Z,1009.41
2023-05-02T11:45:57.977Z,1009.43
2023-05-02T11:46:57.939Z,1009.37
2023-05-02T11:47:57.961Z,1009.41
2023-05-02T11:48:57.905Z,1009.41
2023-05-02T11:49:57.915Z,1009.46
2023-05-02T11:50:57.881Z,1009.48
2023-05-02T11:51:57.878Z,1009.48
2023-05-02T11:52:57.860Z,1009.50
2023-05-02T11:53:57.863Z,1009.49
2023-05-02T11:54:57.831Z,1009.47
2023-05-02T11:55:57.857Z,1009.46
2023-05-02T11:56:57.830Z,1009.44
2023-05-02T11:57:57.852Z,1009.45
2023-05-02T11:58:57.797Z,1009.49
2023-05-02T11:59:57.802Z,1009.46
2023-05-02T12:00:57.787Z,1009.47
2023-05-02T12:01:57.776Z,1009.43
2023-05-02T12:02:57.845Z,1009.44
2023-05-02T12:03:57.796Z,1009.46
2023-05-02T12:04:57.771Z,1009.41
2023-05-02T12:05:57.828Z,1009.44
2023-05-02T12:06:57.804Z,1009.46
2023-05-02T12:07:57.703Z,1009.41